Time;durP1;ratioP1;P1;durP2;ratioP2;P2;SDS_P1;SDS_P2;PMS_P1;PMS_P2;Temp;Humidity;BMP_temperature;BMP_pressure;BME280_temperature;BME280_humidity;BME280_pressure;Samples;Min_cycle;Max_cycle;Signal;HPM_P1;HPM_P2
2022/07/19 05:17:42;;;;;;;;;8.75;8.75;;;;;;;;5097388;27;45431;-63
2022/07/19 05:23:10;;;;;;;;;8.00;8.00;;;;;;;;5086728;27;45374;-64
2022/07/19 05:25:36;;;;;;;;;11.00;8.00;;;;;;;;5080383;27;45370;-64
2022/07/19 05:28:01;;;;;;;;;10.75;8.50;;;;;;;;5074577;28;45315;-64
2022/07/19 05:30:26;;;;;;;;;9.00;7.00;;;;;;;;5074797;28;45349;-64
2022/07/19 05:32:51;;;;;;;;;8.75;8.50;;;;;;;;5076106;28;45183;-64
2022/07/19 05:35:16;;;;;;;;;10.75;10.00;;;;;;;;5076080;28;45381;-64
2022/07/19 05:37:42;;;;;;;;;9.50;8.75;;;;;;;;5076138;28;45337;-64
2022/07/19 05:40:07;;;;;;;;;8.75;8.25;;;;;;;;5076413;28;45283;-64
2022/07/19 05:42:32;;;;;;;;;7.00;7.00;;;;;;;;5057813;28;45654;-64
2022/07/19 05:44:57;;;;;;;;;9.25;9.25;;;;;;;;5075990;28;45713;-64
2022/07/19 05:47:23;;;;;;;;;11.25;9.25;;;;;;;;5075935;28;45496;-64
2022/07/19 05:49:48;;;;;;;;;10.50;8.25;;;;;;;;5075140;28;45344;-64
2022/07/19 05:52:14;;;;;;;;;10.00;7.50;;;;;;;;5057949;28;45159;-64
2022/07/19 05:54:39;;;;;;;;;7.75;7.75;;;;;;;;5076081;28;46461;-64
2022/07/19 05:57:04;;;;;;;;;11.00;8.50;;;;;;;;5076086;28;45334;-64
2022/07/19 05:59:29;;;;;;;;;7.50;7.50;;;;;;;;5075767;28;45883;-63
2022/07/19 06:01:54;;;;;;;;;10.00;8.00;;;;;;;;5076047;28;45329;-66
2022/07/19 06:04:20;;;;;;;;;14.50;10.25;;;;;;;;5075815;28;45449;-63
2022/07/19 06:06:45;;;;;;;;;9.25;9.25;;;;;;;;5075244;28;45401;-63
2022/07/19 06:09:11;;;;;;;;;9.00;9.00;;;;;;;;5057453;28;45849;-63
2022/07/19 06:11:37;;;;;;;;;10.25;9.75;;;;;;;;5056910;28;45895;-65
2022/07/19 06:14:02;;;;;;;;;9.75;9.75;;;;;;;;5075571;28;45711;-64
2022/07/19 06:16:28;;;;;;;;;11.50;10.50;;;;;;;;5075560;28;45429;-64
2022/07/19 06:18:53;;;;;;;;;12.00;10.50;;;;;;;;5075890;28;45373;-64
2022/07/19 06:21:19;;;;;;;;;11.00;10.00;;;;;;;;5075774;28;45422;-63
2022/07/19 06:23:44;;;;;;;;;9.00;7.25;;;;;;;;5057348;28;48747;-63
2022/07/19 06:26:10;;;;;;;;;10.00;10.00;;;;;;;;5064336;28;45349;-63
2022/07/19 06:28:36;;;;;;;;;16.25;14.50;;;;;;;;5074093;28;45303;-63
2022/07/19 06:31:01;;;;;;;;;13.75;11.50;;;;;;;;5075557;28;45249;-63
2022/07/19 06:33:26;;;;;;;;;18.50;12.25;;;;;;;;5075459;28;45382;-63
2022/07/19 06:35:52;;;;;;;;;10.50;10.25;;;;;;;;5075613;28;45349;-63
2022/07/19 06:38:17;;;;;;;;;11.00;10.75;;;;;;;;5075608;28;45431;-63
2022/07/19 06:40:42;;;;;;;;;10.50;9.50;;;;;;;;5075556;28;45516;-64
2022/07/19 06:43:08;;;;;;;;;10.50;8.00;;;;;;;;5075265;28;45545;-64
2022/07/19 06:45:34;;;;;;;;;12.50;11.00;;;;;;;;5075168;28;45578;-64
2022/07/19 06:48:00;;;;;;;;;7.50;7.50;;;;;;;;5075531;28;45372;-64
2022/07/19 06:50:25;;;;;;;;;12.25;9.50;;;;;;;;5075558;28;45368;-64
2022/07/19 06:52:50;;;;;;;;;9.50;9.00;;;;;;;;5075143;28;45352;-64
2022/07/19 06:55:15;;;;;;;;;12.00;10.25;;;;;;;;5075202;28;45416;-64
2022/07/19 06:57:41;;;;;;;;;11.00;9.25;;;;;;;;5075276;28;45574;-64
2022/07/19 07:00:08;;;;;;;;;10.25;10.25;;;;;;;;5066096;28;45460;-64
2022/07/19 07:02:35;;;;;;;;;12.50;12.00;;;;;;;;5078169;28;45821;-63
2022/07/19 07:05:00;;;;;;;;;7.75;7.75;;;;;;;;5078222;28;45295;-63
2022/07/19 07:07:25;;;;;;;;;13.50;12.25;;;;;;;;5078619;28;45358;-64
2022/07/19 07:09:50;;;;;;;;;11.75;10.25;;;;;;;;5079016;28;45341;-64
2022/07/19 07:12:16;;;;;;;;;8.00;8.00;;;;;;;;5078437;28;46033;-64
2022/07/19 07:14:41;;;;;;;;;10.00;10.00;;;;;;;;5078562;28;45417;-64
2022/07/19 07:17:06;;;;;;;;;14.00;12.00;;;;;;;;5078494;28;45435;-64
2022/07/19 07:19:31;;;;;;;;;10.75;10.75;;;;;;;;5060259;28;45337;-63
2022/07/19 07:22:01;;;;;;;;;11.25;11.25;;;;;;;;5078334;28;46310;-64
2022/07/19 07:24:26;;;;;;;;;10.00;10.00;;;;;;;;5060010;28;45509;-64
2022/07/19 07:26:51;;;;;;;;;11.50;10.50;;;;;;;;5078131;27;45971;-64
2022/07/19 07:29:17;;;;;;;;;9.25;9.25;;;;;;;;5078406;28;45297;-64
2022/07/19 07:31:42;;;;;;;;;12.25;11.00;;;;;;;;5078182;28;45825;-65
2022/07/19 07:34:07;;;;;;;;;11.00;11.00;;;;;;;;5076927;28;46279;-64
2022/07/19 07:36:32;;;;;;;;;9.50;9.50;;;;;;;;5078338;28;45455;-66
2022/07/19 07:38:57;;;;;;;;;12.50;11.00;;;;;;;;5078244;28;45409;-66
2022/07/19 07:41:23;;;;;;;;;9.50;9.50;;;;;;;;5078050;28;45397;-65
2022/07/19 07:43:48;;;;;;;;;9.50;9.50;;;;;;;;5078077;28;45372;-65
2022/07/19 07:46:13;;;;;;;;;11.00;10.00;;;;;;;;5078289;28;45391;-66
2022/07/19 07:48:38;;;;;;;;;13.00;10.75;;;;;;;;5076765;28;45402;-64
2022/07/19 07:51:04;;;;;;;;;10.75;10.50;;;;;;;;5078076;28;45441;-64
2022/07/19 07:53:30;;;;;;;;;9.75;9.50;;;;;;;;5078063;28;45514;-64
2022/07/19 07:55:55;;;;;;;;;12.75;12.75;;;;;;;;5077451;28;45231;-64
2022/07/19 07:58:20;;;;;;;;;10.00;9.25;;;;;;;;5077470;28;45416;-64
2022/07/19 08:00:46;;;;;;;;;12.50;10.75;;;;;;;;5076125;28;48129;-64
2022/07/19 08:03:11;;;;;;;;;11.75;11.75;;;;;;;;5077584;28;45353;-64
2022/07/19 08:05:36;;;;;;;;;13.50;12.50;;;;;;;;5059767;28;45429;-64
2022/07/19 08:08:01;;;;;;;;;11.75;11.00;;;;;;;;5077764;28;45367;-64
2022/07/19 08:10:28;;;;;;;;;17.25;13.25;;;;;;;;5077695;28;45699;-63
2022/07/19 08:12:53;;;;;;;;;12.00;12.00;;;;;;;;5076912;28;45358;-65
2022/07/19 08:15:19;;;;;;;;;9.50;8.25;;;;;;;;5059390;28;45343;-65
2022/07/19 08:17:44;;;;;;;;;13.50;10.00;;;;;;;;5077467;28;45314;-64
2022/07/19 08:20:09;;;;;;;;;13.50;10.25;;;;;;;;5077371;28;45382;-65
2022/07/19 08:22:35;;;;;;;;;10.00;8.00;;;;;;;;5077550;28;45330;-64
2022/07/19 08:25:00;;;;;;;;;11.00;10.00;;;;;;;;5077370;28;45383;-63
2022/07/19 08:27:25;;;;;;;;;12.00;11.75;;;;;;;;5077249;27;45397;-65
2022/07/19 08:29:50;;;;;;;;;11.00;9.25;;;;;;;;5077315;28;45699;-65
2022/07/19 08:32:16;;;;;;;;;10.00;10.00;;;;;;;;5077504;28;45330;-64
2022/07/19 08:34:41;;;;;;;;;12.25;11.50;;;;;;;;5077449;28;45407;-64
2022/07/19 08:37:06;;;;;;;;;13.25;13.25;;;;;;;;5077572;28;45264;-66
2022/07/19 08:39:32;;;;;;;;;10.00;10.00;;;;;;;;5077112;28;46546;-65
2022/07/19 08:41:57;;;;;;;;;9.00;9.00;;;;;;;;5077304;28;45385;-64
2022/07/19 08:44:22;;;;;;;;;10.50;9.50;;;;;;;;5077220;28;45396;-64
2022/07/19 08:46:48;;;;;;;;;10.50;10.50;;;;;;;;5058853;28;45430;-64
2022/07/19 08:49:13;;;;;;;;;10.75;10.75;;;;;;;;5077032;28;46474;-65
2022/07/19 08:51:40;;;;;;;;;11.00;9.25;;;;;;;;5076958;28;45576;-65
2022/07/19 08:54:06;;;;;;;;;11.75;9.75;;;;;;;;5077270;28;45328;-65
2022/07/19 08:59:14;;;;;;;;;10.25;10.25;;;;;;;;5076896;28;45247;-65
2022/07/19 09:01:39;;;;;;;;;12.75;11.25;;;;;;;;5076858;28;45294;-65
2022/07/19 09:04:11;;;;;;;;;11.75;10.75;;;;;;;;5058724;28;45435;-64
2022/07/19 09:06:41;;;;;;;;;9.75;8.75;;;;;;;;5076897;28;45361;-64
2022/07/19 09:09:06;;;;;;;;;7.00;7.00;;;;;;;;5058235;28;49299;-65
2022/07/19 09:11:35;;;;;;;;;12.00;11.00;;;;;;;;5076550;28;45181;-65
2022/07/19 09:14:08;;;;;;;;;11.00;11.00;;;;;;;;5076666;28;45422;-64
2022/07/19 09:16:47;;;;;;;;;10.50;8.00;;;;;;;;5058149;28;45388;-65
2022/07/19 09:19:13;;;;;;;;;12.00;10.50;;;;;;;;5076082;28;46526;-64
2022/07/19 09:21:52;;;;;;;;;9.00;9.00;;;;;;;;5076522;28;45311;-65
2022/07/19 09:24:17;;;;;;;;;9.50;9.50;;;;;;;;5058321;28;45336;-65
2022/07/19 09:27:01;;;;;;;;;12.75;10.75;;;;;;;;5076311;27;45445;-64
2022/07/19 09:29:27;;;;;;;;;10.25;7.50;;;;;;;;5076369;28;45771;-65
2022/07/19 09:31:58;;;;;;;;;8.00;8.00;;;;;;;;5076452;28;45246;-64
2022/07/19 09:34:31;;;;;;;;;9.50;9.50;;;;;;;;5076538;28;45311;-64
2022/07/19 09:37:09;;;;;;;;;7.00;7.00;;;;;;;;5076265;28;45363;-65
2022/07/19 09:39:35;;;;;;;;;10.25;10.25;;;;;;;;5076240;28;45670;-65
2022/07/19 09:42:02;;;;;;;;;12.25;9.75;;;;;;;;5057960;28;45324;-65
2022/07/19 09:44:28;;;;;;;;;9.25;8.75;;;;;;;;5076419;28;45369;-64
2022/07/19 09:46:54;;;;;;;;;12.50;11.00;;;;;;;;5076498;28;45329;-64
2022/07/19 09:49:19;;;;;;;;;9.25;6.50;;;;;;;;5075962;28;47383;-64
2022/07/19 09:51:52;;;;;;;;;8.00;8.00;;;;;;;;5076231;28;45796;-64
2022/07/19 09:54:18;;;;;;;;;7.25;7.00;;;;;;;;5076193;28;45356;-65
2022/07/19 09:56:44;;;;;;;;;13.50;9.75;;;;;;;;5076049;28;45358;-64
2022/07/19 09:59:10;;;;;;;;;7.75;7.75;;;;;;;;5076131;28;45809;-65
2022/07/19 10:01:36;;;;;;;;;8.50;8.50;;;;;;;;5075985;28;45321;-65
2022/07/19 10:04:12;;;;;;;;;10.00;8.00;;;;;;;;5076123;28;45228;-65
2022/07/19 10:06:38;;;;;;;;;8.25;8.25;;;;;;;;5057701;28;45465;-66
2022/07/19 10:09:04;;;;;;;;;6.25;5.00;;;;;;;;5075839;28;45513;-65
2022/07/19 10:11:30;;;;;;;;;7.75;7.75;;;;;;;;5075927;28;45372;-65
2022/07/19 10:13:56;;;;;;;;;8.00;8.00;;;;;;;;5057764;28;45349;-64
2022/07/19 10:16:24;;;;;;;;;6.50;6.00;;;;;;;;5075762;28;45275;-64
2022/07/19 10:19:05;;;;;;;;;9.50;8.25;;;;;;;;5075636;28;47656;-64
2022/07/19 10:21:30;;;;;;;;;8.25;8.25;;;;;;;;5057452;28;45346;-65
2022/07/19 10:23:55;;;;;;;;;11.00;9.75;;;;;;;;5075901;28;45337;-64
2022/07/19 10:26:33;;;;;;;;;8.75;7.75;;;;;;;;5075615;27;45329;-64
2022/07/19 10:29:09;;;;;;;;;7.75;6.75;;;;;;;;5075570;28;45735;-65
2022/07/19 10:31:37;;;;;;;;;8.25;7.75;;;;;;;;5057675;28;45656;-65
2022/07/19 10:34:04;;;;;;;;;9.25;9.25;;;;;;;;5057911;28;45251;-64
2022/07/19 10:36:37;;;;;;;;;7.25;7.25;;;;;;;;5077086;28;45302;-65
2022/07/19 10:39:15;;;;;;;;;6.75;6.75;;;;;;;;5079128;28;45847;-63
2022/07/19 10:42:00;;;;;;;;;8.00;8.00;;;;;;;;5079125;28;45337;-64
2022/07/19 10:44:25;;;;;;;;;8.25;8.25;;;;;;;;5078649;28;45291;-63
2022/07/19 10:46:51;;;;;;;;;7.75;7.75;;;;;;;;5079147;28;45266;-65
2022/07/19 10:49:36;;;;;;;;;8.00;8.00;;;;;;;;5078876;28;45528;-65
2022/07/19 10:52:20;;;;;;;;;7.00;7.00;;;;;;;;5078752;28;45301;-65
2022/07/19 10:54:45;;;;;;;;;8.00;8.00;;;;;;;;5077724;28;45343;-64
2022/07/19 10:57:10;;;;;;;;;9.00;7.75;;;;;;;;5060653;28;45485;-65
2022/07/19 10:59:40;;;;;;;;;8.00;8.00;;;;;;;;5077316;28;48251;-65
2022/07/19 11:02:07;;;;;;;;;9.00;9.00;;;;;;;;5078841;28;45361;-65
2022/07/19 11:04:33;;;;;;;;;8.25;8.25;;;;;;;;5078898;28;45421;-64
2022/07/19 11:07:10;;;;;;;;;9.25;9.25;;;;;;;;5078693;28;45429;-65
2022/07/19 11:09:39;;;;;;;;;9.75;9.00;;;;;;;;5078484;28;47155;-64
2022/07/19 11:12:18;;;;;;;;;6.50;6.50;;;;;;;;5078466;28;45277;-66
2022/07/19 11:14:44;;;;;;;;;8.00;6.50;;;;;;;;5043541;28;45343;-65
2022/07/19 11:17:10;;;;;;;;;7.50;7.50;;;;;;;;5077263;28;45533;-65
2022/07/19 11:19:35;;;;;;;;;7.75;7.75;;;;;;;;5060094;28;47386;-65
2022/07/19 11:22:01;;;;;;;;;7.50;7.50;;;;;;;;5078534;28;45346;-65
2022/07/19 11:24:26;;;;;;;;;9.50;8.50;;;;;;;;5078316;28;45291;-65
2022/07/19 11:26:51;;;;;;;;;7.50;7.50;;;;;;;;5078090;27;45325;-64
2022/07/19 11:29:16;;;;;;;;;8.25;7.50;;;;;;;;5078241;28;46124;-64
2022/07/19 11:31:47;;;;;;;;;7.50;7.50;;;;;;;;5078329;28;45345;-65
2022/07/19 11:34:13;;;;;;;;;7.50;6.50;;;;;;;;5078428;28;45358;-65
2022/07/19 11:36:38;;;;;;;;;7.00;7.00;;;;;;;;5078287;28;45487;-65
2022/07/19 11:39:03;;;;;;;;;6.00;6.00;;;;;;;;5060023;28;47196;-64
2022/07/19 11:41:30;;;;;;;;;8.75;8.00;;;;;;;;5078140;28;45670;-64
2022/07/19 11:43:55;;;;;;;;;7.50;7.50;;;;;;;;5060007;28;45227;-64
2022/07/19 11:46:21;;;;;;;;;9.00;9.00;;;;;;;;5078444;28;45324;-64
2022/07/19 11:48:47;;;;;;;;;8.25;6.50;;;;;;;;5076661;28;46473;-64
2022/07/19 11:51:13;;;;;;;;;7.00;7.00;;;;;;;;5078173;28;45329;-65
2022/07/19 11:53:39;;;;;;;;;6.75;6.25;;;;;;;;5078129;28;45332;-65
2022/07/19 11:56:05;;;;;;;;;8.00;8.00;;;;;;;;5077974;28;45388;-64
2022/07/19 11:58:30;;;;;;;;;7.50;7.50;;;;;;;;5077928;28;45814;-64
2022/07/19 12:01:03;;;;;;;;;10.75;9.75;;;;;;;;5077858;28;45375;-65
2022/07/19 12:03:28;;;;;;;;;8.00;7.50;;;;;;;;5077734;28;45258;-64
2022/07/19 12:05:58;;;;;;;;;9.00;7.50;;;;;;;;5059662;28;45410;-65
2022/07/19 12:08:43;;;;;;;;;11.00;9.00;;;;;;;;5077726;28;46503;-64
2022/07/19 12:11:21;;;;;;;;;9.25;9.25;;;;;;;;5077716;28;45370;-64
2022/07/19 12:13:47;;;;;;;;;8.00;8.00;;;;;;;;5077922;28;45262;-64
2022/07/19 12:16:15;;;;;;;;;10.75;9.50;;;;;;;;5077699;28;45222;-65
2022/07/19 12:18:54;;;;;;;;;12.25;11.75;;;;;;;;5077717;28;45866;-64
2022/07/19 12:21:24;;;;;;;;;7.50;7.25;;;;;;;;5077581;28;45297;-64
2022/07/19 12:24:07;;;;;;;;;9.50;9.50;;;;;;;;5077429;28;45298;-65
2022/07/19 12:26:33;;;;;;;;;9.25;8.75;;;;;;;;5077408;27;45346;-64
2022/07/19 12:28:58;;;;;;;;;10.00;10.00;;;;;;;;5077331;28;46579;-64
2022/07/19 12:31:23;;;;;;;;;11.50;10.25;;;;;;;;5077341;28;45340;-64
2022/07/19 12:33:57;;;;;;;;;9.75;8.75;;;;;;;;5077596;28;45352;-64
2022/07/19 12:36:33;;;;;;;;;11.25;11.00;;;;;;;;5077394;28;45339;-65
2022/07/19 12:38:58;;;;;;;;;9.50;9.50;;;;;;;;5077160;28;45787;-64
2022/07/19 12:41:23;;;;;;;;;9.50;9.50;;;;;;;;5058999;28;45325;-64
2022/07/19 12:43:48;;;;;;;;;8.75;8.75;;;;;;;;5077422;28;45292;-64
2022/07/19 12:46:13;;;;;;;;;9.00;8.00;;;;;;;;5077302;28;45286;-65
2022/07/19 12:48:39;;;;;;;;;7.25;7.25;;;;;;;;5077116;28;45672;-64
2022/07/19 12:51:04;;;;;;;;;9.75;9.00;;;;;;;;5077121;28;45321;-65
2022/07/19 12:53:29;;;;;;;;;9.00;9.00;;;;;;;;5077187;28;45587;-65
2022/07/19 12:55:54;;;;;;;;;8.00;8.00;;;;;;;;5077094;28;45348;-65
2022/07/19 13:01:05;;;;;;;;;9.25;9.25;;;;;;;;5076992;28;45325;-64
2022/07/19 13:03:31;;;;;;;;;11.25;10.00;;;;;;;;5076893;28;45365;-63
2022/07/19 13:05:59;;;;;;;;;10.25;9.25;;;;;;;;5076989;28;45471;-64
2022/07/19 13:08:25;;;;;;;;;9.50;9.50;;;;;;;;5076781;28;45671;-65
2022/07/19 13:10:51;;;;;;;;;13.00;11.25;;;;;;;;5076771;28;45406;-64
2022/07/19 13:13:16;;;;;;;;;9.50;9.50;;;;;;;;5076865;28;45196;-64
2022/07/19 13:15:41;;;;;;;;;9.50;9.50;;;;;;;;5076712;28;45495;-66
2022/07/19 13:18:06;;;;;;;;;10.00;9.00;;;;;;;;5076584;28;45556;-65
2022/07/19 13:20:32;;;;;;;;;10.25;10.25;;;;;;;;5076689;28;45326;-64
2022/07/19 13:22:57;;;;;;;;;10.00;9.50;;;;;;;;5076705;28;45283;-64
2022/07/19 13:25:22;;;;;;;;;9.25;9.25;;;;;;;;5076603;28;45330;-65
2022/07/19 13:27:48;;;;;;;;;11.75;11.25;;;;;;;;5076361;27;45505;-65
2022/07/19 13:30:13;;;;;;;;;9.75;9.75;;;;;;;;5058262;28;45508;-64
2022/07/19 13:32:39;;;;;;;;;10.50;10.50;;;;;;;;5076440;28;45325;-64
2022/07/19 13:35:04;;;;;;;;;8.00;8.00;;;;;;;;5076575;28;45217;-65
2022/07/19 13:37:29;;;;;;;;;11.00;10.00;;;;;;;;5076130;28;45688;-65
2022/07/19 13:39:55;;;;;;;;;8.75;7.00;;;;;;;;5076438;28;45279;-65
2022/07/19 13:42:20;;;;;;;;;12.75;11.75;;;;;;;;5076587;28;45386;-64
2022/07/19 13:44:46;;;;;;;;;9.50;9.50;;;;;;;;5057835;28;45377;-65
2022/07/19 13:47:11;;;;;;;;;10.50;10.50;;;;;;;;5076309;28;46434;-65
2022/07/19 13:49:36;;;;;;;;;11.25;11.25;;;;;;;;5093496;27;45469;-66
2022/07/19 13:52:01;;;;;;;;;13.75;13.75;;;;;;;;5096731;27;45329;-65
2022/07/19 13:54:26;;;;;;;;;11.00;9.00;;;;;;;;5096739;27;45353;-66
2022/07/19 13:56:51;;;;;;;;;12.25;12.25;;;;;;;;5095041;27;46478;-65
2022/07/19 13:59:17;;;;;;;;;12.50;11.50;;;;;;;;5096592;27;45465;-66
2022/07/19 14:01:43;;;;;;;;;11.75;10.75;;;;;;;;5078214;27;45241;-65
2022/07/19 14:04:08;;;;;;;;;15.00;13.00;;;;;;;;5096613;27;45281;-65
2022/07/19 14:06:33;;;;;;;;;15.00;14.75;;;;;;;;5078106;27;48532;-65
2022/07/19 14:08:58;;;;;;;;;13.50;12.75;;;;;;;;5096341;27;45329;-65
2022/07/19 14:11:23;;;;;;;;;12.75;12.75;;;;;;;;5095655;27;45295;-65
2022/07/19 14:13:49;;;;;;;;;14.00;14.00;;;;;;;;5096503;27;45434;-65
2022/07/19 14:16:15;;;;;;;;;16.00;14.75;;;;;;;;5096199;27;45562;-64
2022/07/19 14:18:40;;;;;;;;;15.00;13.00;;;;;;;;5096281;27;45420;-64
2022/07/19 14:21:05;;;;;;;;;13.00;13.00;;;;;;;;5096751;27;45288;-64
2022/07/19 14:23:30;;;;;;;;;13.75;13.75;;;;;;;;5096267;27;45226;-64
2022/07/19 14:25:56;;;;;;;;;10.25;10.25;;;;;;;;5082138;27;47549;-64
2022/07/19 14:28:21;;;;;;;;;12.50;11.75;;;;;;;;5096502;27;45423;-64
2022/07/19 14:30:46;;;;;;;;;12.50;12.00;;;;;;;;5096141;27;45146;-64
2022/07/19 14:33:12;;;;;;;;;10.00;10.00;;;;;;;;5096074;27;45265;-65
2022/07/19 14:35:37;;;;;;;;;6.50;6.50;;;;;;;;5096028;27;45327;-64
2022/07/19 14:38:02;;;;;;;;;10.50;9.50;;;;;;;;5096017;27;45298;-63
2022/07/19 14:40:28;;;;;;;;;14.25;12.00;;;;;;;;5096211;27;45319;-64
2022/07/19 14:42:53;;;;;;;;;12.25;12.25;;;;;;;;5096101;27;45366;-65
2022/07/19 14:45:18;;;;;;;;;14.25;13.00;;;;;;;;5095654;27;45631;-65
2022/07/19 14:47:44;;;;;;;;;13.75;13.75;;;;;;;;5095970;27;45300;-65
2022/07/19 14:50:10;;;;;;;;;13.00;12.50;;;;;;;;5077616;27;45302;-65
2022/07/19 14:52:36;;;;;;;;;14.00;14.00;;;;;;;;5095848;27;45354;-64
2022/07/19 14:55:01;;;;;;;;;12.50;12.50;;;;;;;;5095832;27;46483;-65
2022/07/19 14:57:26;;;;;;;;;13.75;13.75;;;;;;;;5077391;27;45452;-63
2022/07/19 14:59:51;;;;;;;;;14.00;12.50;;;;;;;;5096049;27;45300;-65
2022/07/19 15:02:17;;;;;;;;;14.75;14.00;;;;;;;;5095942;27;45344;-64
2022/07/19 15:04:43;;;;;;;;;14.00;13.00;;;;;;;;5095474;27;46053;-64
2022/07/19 15:07:08;;;;;;;;;13.75;13.00;;;;;;;;5095781;27;45333;-64
2022/07/19 15:09:34;;;;;;;;;13.25;12.50;;;;;;;;5095662;27;45430;-64
2022/07/19 15:11:59;;;;;;;;;12.50;11.75;;;;;;;;5095801;27;45416;-64
2022/07/19 15:14:29;;;;;;;;;15.00;15.00;;;;;;;;5077211;27;47419;-63
2022/07/19 15:16:55;;;;;;;;;15.00;13.00;;;;;;;;5095227;27;45455;-64
2022/07/19 15:19:20;;;;;;;;;16.25;15.50;;;;;;;;5095699;27;45330;-65
2022/07/19 15:21:45;;;;;;;;;17.00;15.00;;;;;;;;5096026;27;45384;-64
2022/07/19 15:24:10;;;;;;;;;15.75;14.50;;;;;;;;5098506;27;46608;-65
2022/07/19 15:26:36;;;;;;;;;16.25;15.00;;;;;;;;5098532;27;45345;-64
2022/07/19 15:29:01;;;;;;;;;14.25;14.25;;;;;;;;5099082;27;45369;-64
2022/07/19 15:31:26;;;;;;;;;14.50;13.75;;;;;;;;5098902;27;45257;-64
2022/07/19 15:33:52;;;;;;;;;14.00;14.00;;;;;;;;5098737;27;45947;-64
2022/07/19 15:36:17;;;;;;;;;12.50;12.00;;;;;;;;5098550;27;45469;-63
2022/07/19 15:38:42;;;;;;;;;14.00;14.00;;;;;;;;5098993;27;45351;-63
2022/07/19 15:41:07;;;;;;;;;17.00;15.50;;;;;;;;5098918;27;45348;-65
2022/07/19 15:43:32;;;;;;;;;12.50;12.50;;;;;;;;5098583;27;46758;-64
2022/07/19 15:45:57;;;;;;;;;17.50;15.25;;;;;;;;5098385;27;45355;-65
2022/07/19 15:48:23;;;;;;;;;14.00;14.00;;;;;;;;5098749;27;45307;-66
2022/07/19 15:50:48;;;;;;;;;15.75;14.00;;;;;;;;5098612;27;45325;-64
2022/07/19 15:53:13;;;;;;;;;14.25;13.00;;;;;;;;5098477;27;46469;-65
2022/07/19 15:55:38;;;;;;;;;14.00;12.00;;;;;;;;5080021;27;45299;-65
2022/07/19 15:58:04;;;;;;;;;16.00;15.00;;;;;;;;5098438;27;45336;-64
2022/07/19 16:00:30;;;;;;;;;13.25;13.25;;;;;;;;5098581;27;45290;-64
2022/07/19 16:02:56;;;;;;;;;15.00;14.00;;;;;;;;5098199;27;45715;-63
2022/07/19 16:05:21;;;;;;;;;13.00;13.00;;;;;;;;5098118;27;45412;-64
2022/07/19 16:07:46;;;;;;;;;11.00;11.00;;;;;;;;5098566;27;45162;-63
2022/07/19 16:10:12;;;;;;;;;9.75;9.75;;;;;;;;5098432;27;45684;-63
2022/07/19 16:12:38;;;;;;;;;10.00;10.00;;;;;;;;5079657;27;48420;-64
2022/07/19 16:15:03;;;;;;;;;9.50;9.50;;;;;;;;5098086;27;45328;-64
2022/07/19 16:17:31;;;;;;;;;12.00;10.00;;;;;;;;5098048;27;45285;-65
2022/07/19 16:19:56;;;;;;;;;11.25;11.25;;;;;;;;5097853;27;45354;-65
2022/07/19 16:22:21;;;;;;;;;11.75;11.25;;;;;;;;5097829;27;45353;-64
2022/07/19 16:24:47;;;;;;;;;11.25;10.00;;;;;;;;5097591;27;45467;-66
2022/07/19 16:27:12;;;;;;;;;10.25;10.25;;;;;;;;5087465;27;45359;-63
2022/07/19 16:29:37;;;;;;;;;21.00;19.00;;;;;;;;5097990;27;45460;-64
2022/07/19 16:32:03;;;;;;;;;14.75;14.75;;;;;;;;5097809;27;45599;-64
2022/07/19 16:34:28;;;;;;;;;15.25;15.25;;;;;;;;5097100;27;45461;-63
2022/07/19 16:36:53;;;;;;;;;18.50;18.50;;;;;;;;5097748;27;45355;-63
2022/07/19 16:39:19;;;;;;;;;17.75;17.75;;;;;;;;5097771;27;46067;-64
2022/07/19 16:41:44;;;;;;;;;17.00;16.75;;;;;;;;5097500;27;46167;-64
2022/07/19 16:44:09;;;;;;;;;21.50;21.50;;;;;;;;5097576;27;45645;-64
2022/07/19 16:46:34;;;;;;;;;17.75;16.50;;;;;;;;5097699;27;45367;-64
2022/07/19 16:49:00;;;;;;;;;11.25;11.25;;;;;;;;5097585;27;45455;-64
2022/07/19 16:51:27;;;;;;;;;12.00;12.00;;;;;;;;5079096;27;47983;-64
2022/07/19 16:53:52;;;;;;;;;10.50;10.50;;;;;;;;5096024;27;45354;-65
2022/07/19 16:56:17;;;;;;;;;13.00;13.00;;;;;;;;5097735;27;45460;-64
2022/07/19 16:58:43;;;;;;;;;16.00;16.00;;;;;;;;5097514;27;45351;-64
2022/07/19 17:01:08;;;;;;;;;29.00;28.50;;;;;;;;5097456;27;46654;-64
2022/07/19 17:03:35;;;;;;;;;32.00;30.75;;;;;;;;5097304;27;45397;-65
2022/07/19 17:06:00;;;;;;;;;28.25;28.25;;;;;;;;5097489;27;45387;-64
2022/07/19 17:08:25;;;;;;;;;25.50;25.00;;;;;;;;5097398;27;45204;-64
2022/07/19 17:10:50;;;;;;;;;18.00;16.75;;;;;;;;5096963;27;46593;-64
2022/07/19 17:13:15;;;;;;;;;16.50;15.50;;;;;;;;5097306;27;45376;-64
2022/07/19 17:15:41;;;;;;;;;18.25;18.00;;;;;;;;5097412;27;45486;-64
2022/07/19 17:18:06;;;;;;;;;20.00;19.50;;;;;;;;5078839;27;45433;-64
2022/07/19 17:20:31;;;;;;;;;14.50;13.50;;;;;;;;5097189;27;46300;-64
2022/07/19 17:22:56;;;;;;;;;18.25;18.00;;;;;;;;5096204;27;45353;-63
2022/07/19 17:25:22;;;;;;;;;16.00;16.00;;;;;;;;5097210;27;45364;-64
2022/07/19 17:27:47;;;;;;;;;17.50;17.50;;;;;;;;5112720;27;45349;-63
2022/07/19 17:30:13;;;;;;;;;19.00;18.75;;;;;;;;5117067;27;46173;-64
2022/07/19 17:32:38;;;;;;;;;19.75;19.50;;;;;;;;5117327;27;45316;-64
2022/07/19 17:35:03;;;;;;;;;22.00;21.00;;;;;;;;5117480;27;45245;-63
2022/07/19 17:37:29;;;;;;;;;52.75;44.25;;;;;;;;5117063;27;45568;-63
2022/07/19 17:39:54;;;;;;;;;67.33;55.67;;;;;;;;5117207;27;45520;-64
2022/07/19 17:42:19;;;;;;;;;68.00;57.33;;;;;;;;5117207;27;45438;-64
2022/07/19 17:44:44;;;;;;;;;67.67;56.33;;;;;;;;5081351;27;45272;-65
2022/07/19 17:47:10;;;;;;;;;69.00;56.67;;;;;;;;5116423;27;45395;-65
2022/07/19 17:49:35;;;;;;;;;59.00;48.00;;;;;;;;5098202;27;48467;-65
2022/07/19 17:52:00;;;;;;;;;67.00;54.67;;;;;;;;5114289;27;45920;-64
2022/07/19 17:54:25;;;;;;;;;68.50;55.00;;;;;;;;5098500;27;45245;-65
2022/07/19 17:56:51;;;;;;;;;69.67;58.67;;;;;;;;5098383;27;45610;-64
2022/07/19 17:59:16;;;;;;;;;62.50;50.50;;;;;;;;5116775;27;46429;-64
2022/07/19 18:01:41;;;;;;;;;63.25;51.50;;;;;;;;5116699;27;45433;-63
2022/07/19 18:04:06;;;;;;;;;62.75;51.50;;;;;;;;5116528;27;45185;-64
2022/07/19 18:06:33;;;;;;;;;64.50;52.50;;;;;;;;5116849;27;45306;-63
2022/07/19 18:08:59;;;;;;;;;64.25;52.25;;;;;;;;5116294;27;47347;-65
2022/07/19 18:11:24;;;;;;;;;68.00;55.75;;;;;;;;5116708;27;45309;-64
2022/07/19 18:13:49;;;;;;;;;68.50;55.00;;;;;;;;5116941;27;45205;-64
2022/07/19 18:16:14;;;;;;;;;68.67;57.00;;;;;;;;5098052;27;45564;-63
2022/07/19 18:18:39;;;;;;;;;73.33;61.67;;;;;;;;5098194;27;47534;-64
2022/07/19 18:21:05;;;;;;;;;78.33;71.67;;;;;;;;5116567;27;45662;-63
2022/07/19 18:23:30;;;;;;;;;80.00;77.33;;;;;;;;5097930;27;45380;-63
2022/07/19 18:25:55;;;;;;;;;82.33;79.00;;;;;;;;5108320;27;45390;-64
2022/07/19 18:28:21;;;;;;;;;80.67;74.67;;;;;;;;5095639;27;45701;-64
2022/07/19 18:30:46;;;;;;;;;80.67;76.67;;;;;;;;5095863;27;45391;-64
2022/07/19 18:33:11;;;;;;;;;79.00;76.00;;;;;;;;5096063;27;45322;-63
2022/07/19 18:35:36;;;;;;;;;75.33;66.67;;;;;;;;5095932;27;45298;-65
2022/07/19 18:38:02;;;;;;;;;77.33;71.33;;;;;;;;5095581;27;45723;-63
2022/07/19 18:40:27;;;;;;;;;80.33;74.67;;;;;;;;5095856;27;45395;-64
2022/07/19 18:42:52;;;;;;;;;75.67;65.67;;;;;;;;5077556;27;45309;-64
2022/07/19 18:45:17;;;;;;;;;71.67;60.00;;;;;;;;5095678;27;45441;-63
2022/07/19 18:47:43;;;;;;;;;69.00;57.00;;;;;;;;5077178;27;48005;-65
2022/07/19 18:50:08;;;;;;;;;70.67;59.67;;;;;;;;5095334;27;45325;-63
2022/07/19 18:52:33;;;;;;;;;72.25;57.75;;;;;;;;5075307;27;45463;-69
2022/07/19 18:54:59;;;;;;;;;70.00;58.67;;;;;;;;5092370;27;45418;-70
2022/07/19 18:57:24;;;;;;;;;67.50;54.00;;;;;;;;5094671;27;45583;-68
2022/07/19 18:59:49;;;;;;;;;70.75;55.75;;;;;;;;5096751;27;45503;-67
2022/07/19 19:02:14;;;;;;;;;63.50;51.75;;;;;;;;5097115;27;45423;-68
2022/07/19 19:04:39;;;;;;;;;66.00;52.75;;;;;;;;5097036;27;45579;-68
2022/07/19 19:07:05;;;;;;;;;67.00;55.00;;;;;;;;5096579;27;46604;-66
2022/07/19 19:09:30;;;;;;;;;64.25;52.25;;;;;;;;5096711;27;45421;-66
2022/07/19 19:11:55;;;;;;;;;65.25;52.75;;;;;;;;5096792;27;45481;-66
2022/07/19 19:14:20;;;;;;;;;62.50;51.25;;;;;;;;5097072;27;45441;-67
2022/07/19 19:16:45;;;;;;;;;62.25;51.75;;;;;;;;5096982;27;45530;-67
2022/07/19 19:19:11;;;;;;;;;61.50;49.25;;;;;;;;5078058;27;46172;-70
2022/07/19 19:21:36;;;;;;;;;63.50;50.50;;;;;;;;5096575;27;46272;-67
2022/07/19 19:24:02;;;;;;;;;36.50;31.50;;;;;;;;5096643;27;45519;-68
2022/07/19 19:26:27;;;;;;;;;56.25;47.00;;;;;;;;5096511;27;45628;-68
2022/07/19 19:28:53;;;;;;;;;47.25;39.75;;;;;;;;5096486;27;45436;-67
2022/07/19 19:31:18;;;;;;;;;51.25;40.75;;;;;;;;5095685;27;45682;-67
2022/07/19 19:33:43;;;;;;;;;47.00;39.50;;;;;;;;5096633;27;45567;-68
2022/07/19 19:36:09;;;;;;;;;41.50;37.00;;;;;;;;5096348;27;46202;-67
2022/07/19 19:38:34;;;;;;;;;36.50;32.00;;;;;;;;5097181;27;45457;-65
2022/07/19 19:40:59;;;;;;;;;31.00;30.25;;;;;;;;5096212;27;45380;-66
2022/07/19 19:43:25;;;;;;;;;33.50;31.00;;;;;;;;5078674;27;45426;-65
2022/07/19 19:45:50;;;;;;;;;32.75;31.00;;;;;;;;5095560;27;46561;-68